createdAt,value
2019-03-04T00:01:36.241Z,99500.96
2019-03-04T00:06:30.126Z,99484.30
2019-03-04T00:11:23.994Z,99474.15
2019-03-04T00:16:18.125Z,99453.00
2019-03-04T00:21:11.984Z,99441.02
2019-03-04T00:26:05.844Z,99426.20
2019-03-04T00:31:00.028Z,99416.17
2019-03-04T00:35:53.875Z,99406.03
2019-03-04T00:40:47.778Z,99379.70
2019-03-04T00:45:41.775Z,99350.08
2019-03-04T00:50:35.721Z,99333.58
2019-03-04T00:55:29.694Z,99333.06
2019-03-04T01:00:24.678Z,99307.72
2019-03-04T01:05:18.643Z,99299.70
2019-03-04T01:10:14.078Z,99356.65
2019-03-04T01:15:10.658Z,99350.29
2019-03-04T01:20:07.930Z,99352.75
2019-03-04T01:25:05.416Z,99340.09
2019-03-04T01:29:59.380Z,99341.31
2019-03-04T01:34:53.227Z,99338.44
2019-03-04T01:39:47.119Z,99324.25
2019-03-04T01:44:41.219Z,99288.12
2019-03-04T01:49:35.116Z,99266.71
2019-03-04T01:54:28.986Z,99283.57
2019-03-04T01:59:22.930Z,99238.73
2019-03-04T02:04:16.789Z,99230.13
2019-03-04T02:09:11.145Z,99223.67
2019-03-04T02:14:05.118Z,99208.06
2019-03-04T02:18:59.128Z,99187.11
2019-03-04T02:23:52.976Z,99167.28
2019-03-04T02:28:46.845Z,99160.64
2019-03-04T02:33:40.710Z,99133.24
2019-03-04T02:38:34.540Z,99083.52
2019-03-04T02:43:28.398Z,99083.00
2019-03-04T02:48:22.294Z,99078.72
2019-03-04T02:53:16.147Z,99056.73
2019-03-04T02:58:10.103Z,99027.17
2019-03-04T03:03:04.053Z,99032.02
2019-03-04T03:07:57.909Z,99026.41
2019-03-04T03:12:51.758Z,99025.33
2019-03-04T03:17:45.832Z,99003.52
2019-03-04T03:22:39.710Z,98995.09
2019-03-04T03:27:33.549Z,98956.33
2019-03-04T03:32:27.406Z,98962.05
2019-03-04T03:37:21.277Z,98904.98
2019-03-04T03:42:15.158Z,98857.29
2019-03-04T03:47:09.041Z,98840.61
2019-03-04T03:52:03.004Z,98793.40
2019-03-04T03:56:56.990Z,98813.38
2019-03-04T04:01:50.837Z,98885.89
2019-03-04T04:06:44.716Z,98834.31
2019-03-04T04:11:38.560Z,98829.16
2019-03-04T04:16:32.438Z,98801.91
2019-03-04T04:21:26.301Z,98769.17
2019-03-04T04:26:20.319Z,98773.69
2019-03-04T04:31:14.168Z,98801.65
2019-03-04T04:36:08.022Z,98791.86
2019-03-04T04:41:01.906Z,98773.33
2019-03-04T04:45:55.765Z,98776.25
2019-03-04T04:50:49.634Z,98773.06
2019-03-04T04:55:43.494Z,98759.95
2019-03-04T05:00:37.455Z,98739.38
2019-03-04T05:05:31.425Z,98773.05
2019-03-04T05:10:25.290Z,98791.53
2019-03-04T05:15:19.152Z,98692.23
2019-03-04T05:20:22.132Z,98704.61
2019-03-04T05:25:16.103Z,98715.64
2019-03-04T05:30:12.965Z,98720.53
2019-03-04T05:35:07.018Z,98688.37
2019-03-04T05:40:00.928Z,98683.42
2019-03-04T05:44:54.787Z,98669.55
2019-03-04T05:49:48.680Z,98657.60
2019-03-04T05:54:42.504Z,98642.26
2019-03-04T05:59:36.365Z,98630.27
2019-03-04T06:04:30.412Z,98607.44
2019-03-04T06:09:24.263Z,98629.87
2019-03-04T06:14:18.131Z,98798.59
2019-03-04T06:19:12.004Z,98882.14
2019-03-04T06:24:05.854Z,98830.61
2019-03-04T06:28:59.708Z,98853.70
2019-03-04T06:33:53.577Z,98839.62
2019-03-04T06:38:47.416Z,98839.62
2019-03-04T06:43:41.268Z,98842.59
2019-03-04T06:48:35.277Z,98833.98
2019-03-04T06:53:42.224Z,98781.23
2019-03-04T06:58:42.705Z,98757.23
2019-03-04T07:03:36.645Z,98764.52
2019-03-04T07:08:37.439Z,98772.73
2019-03-04T07:13:31.449Z,98764.30
2019-03-04T07:18:25.295Z,98772.97
2019-03-04T07:23:19.173Z,98759.16
2019-03-04T07:28:13.053Z,98780.84
2019-03-04T07:33:06.917Z,98751.07
2019-03-04T07:38:16.423Z,98772.39
2019-03-04T07:43:10.325Z,98790.00
2019-03-04T07:48:04.293Z,98774.01
2019-03-04T07:52:58.176Z,98769.81
2019-03-04T07:57:52.064Z,98792.33
2019-03-04T08:02:45.898Z,98773.16
2019-03-04T08:07:45.368Z,98771.86
2019-03-04T08:12:48.953Z,98782.12
2019-03-04T08:17:43.128Z,98799.66
2019-03-04T08:22:37.162Z,98786.47
2019-03-04T08:27:31.032Z,98798.88
2019-03-04T08:32:25.022Z,98823.06
2019-03-04T08:37:19.507Z,98829.47
2019-03-04T08:42:13.363Z,98815.67
2019-03-04T08:47:07.312Z,98817.00
2019-03-04T08:52:01.173Z,98817.00
2019-03-04T08:57:03.672Z,98821.31
2019-03-04T09:01:50.944Z,98818.34
2019-03-04T09:06:44.817Z,98812.22
2019-03-04T09:11:38.685Z,98817.51
2019-03-04T09:16:32.570Z,98852.56
2019-03-04T09:21:26.440Z,98819.45
2019-03-04T09:26:20.325Z,98824.61
2019-03-04T09:31:14.176Z,98832.45
2019-03-04T09:36:08.134Z,98821.49
2019-03-04T09:41:02.028Z,98821.44
2019-03-04T09:45:56.002Z,98834.08
2019-03-04T09:50:49.902Z,98828.78
2019-03-04T09:55:43.867Z,98799.34
2019-03-04T10:00:44.610Z,98795.66
2019-03-04T10:05:45.030Z,98826.41
2019-03-04T10:10:48.451Z,98803.22
2019-03-04T10:15:46.155Z,98813.22
2019-03-04T10:20:59.214Z,98785.41
2019-03-04T10:26:22.301Z,98763.14
2019-03-04T10:31:33.110Z,98790.16
2019-03-04T10:36:30.956Z,98777.64
2019-03-04T10:41:37.425Z,98803.17
2019-03-04T10:46:41.136Z,98754.57
2019-03-04T10:51:35.013Z,98764.75
2019-03-04T10:56:28.995Z,98765.33
2019-03-04T11:01:30.148Z,98765.70
2019-03-04T11:06:18.881Z,98750.58
2019-03-04T11:11:12.777Z,98764.41
2019-03-04T11:16:06.650Z,98753.06
2019-03-04T11:21:00.536Z,98751.07
2019-03-04T11:25:54.445Z,98819.34
2019-03-04T11:30:48.502Z,98881.61
2019-03-04T11:35:42.411Z,98913.64
2019-03-04T11:40:38.995Z,98934.00
2019-03-04T11:45:33.066Z,98958.44
2019-03-04T11:50:27.044Z,98944.98
2019-03-04T11:55:24.414Z,98960.06
2019-03-04T12:00:23.199Z,98967.66
2019-03-04T12:05:17.053Z,98977.63
2019-03-04T12:10:13.551Z,98977.37
2019-03-04T12:15:11.032Z,99001.66
2019-03-04T12:20:07.009Z,99004.66
2019-03-04T12:25:00.988Z,99029.55
2019-03-04T12:29:54.958Z,99036.19
2019-03-04T12:34:48.916Z,99057.91
2019-03-04T12:39:42.783Z,99041.28
2019-03-04T12:44:36.667Z,99050.55
2019-03-04T12:49:30.551Z,99067.52
2019-03-04T12:54:24.519Z,99100.42
2019-03-04T12:59:18.376Z,99095.09
2019-03-04T13:04:12.401Z,99095.55
2019-03-04T13:09:14.100Z,99115.97
2019-03-04T13:14:02.233Z,99122.91
2019-03-04T13:18:56.091Z,99135.33
2019-03-04T13:23:49.964Z,99146.00
2019-03-04T13:28:43.843Z,99165.64
2019-03-04T13:33:37.724Z,99175.98
2019-03-04T13:38:31.605Z,99185.65
2019-03-04T13:43:25.456Z,99208.72
2019-03-04T13:48:19.356Z,99204.44
2019-03-04T13:53:13.240Z,99211.98
2019-03-04T13:58:07.336Z,99205.71
2019-03-04T14:03:01.220Z,99205.00
2019-03-04T14:07:55.107Z,99212.62
2019-03-04T14:12:49.205Z,99248.64
2019-03-04T14:17:43.174Z,99268.55
2019-03-04T14:22:40.286Z,99247.85
2019-03-04T14:27:33.047Z,99263.45
2019-03-04T14:32:27.026Z,99266.26
2019-03-04T14:37:21.899Z,99275.92
2019-03-04T14:42:16.003Z,99293.65
2019-03-04T14:47:10.020Z,99298.35
2019-03-04T14:52:04.120Z,99299.70
2019-03-04T14:56:58.007Z,99342.59
2019-03-04T15:01:51.873Z,99335.02
2019-03-04T15:06:45.844Z,99339.53
2019-03-04T15:11:39.822Z,99355.57
2019-03-04T15:16:33.807Z,99346.20
2019-03-04T15:21:27.676Z,99375.86
2019-03-04T15:26:21.670Z,99379.95
2019-03-04T15:31:15.560Z,99384.03
2019-03-04T15:36:09.389Z,99394.42
2019-03-04T15:41:03.297Z,99412.13
2019-03-04T15:45:59.185Z,99417.92
2019-03-04T15:50:55.421Z,99432.13
2019-03-04T15:55:49.281Z,99437.22
2019-03-04T16:00:43.262Z,99447.55
2019-03-04T16:05:37.333Z,99456.86
2019-03-04T16:10:36.505Z,99457.85
2019-03-04T16:15:30.530Z,99468.19
2019-03-04T16:20:24.399Z,99491.03
2019-03-04T16:25:18.743Z,99483.03
2019-03-04T16:30:20.506Z,99496.64
2019-03-04T16:35:14.688Z,99489.69
2019-03-04T16:40:11.979Z,99499.42
2019-03-04T16:45:09.532Z,99517.45
2019-03-04T16:50:11.826Z,99531.31
2019-03-04T16:55:08.799Z,99540.31
2019-03-04T17:00:05.889Z,99543.00
2019-03-04T17:04:59.863Z,99567.05
2019-03-04T17:09:53.827Z,99566.94
2019-03-04T17:14:47.706Z,99568.75
2019-03-04T17:19:41.687Z,99569.30
2019-03-04T17:24:35.773Z,99587.17
2019-03-04T17:29:29.717Z,99590.70
2019-03-04T17:34:23.598Z,99604.56
2019-03-04T17:39:17.611Z,99616.06
2019-03-04T17:44:15.298Z,99623.32
2019-03-04T17:49:09.206Z,99636.23
2019-03-04T17:54:03.296Z,99644.88
2019-03-04T17:58:57.264Z,99644.94
2019-03-04T18:03:51.191Z,99657.36
2019-03-04T18:13:45.448Z,99667.06
2019-03-04T18:18:39.330Z,99680.71
2019-03-04T18:23:33.222Z,99675.70
2019-03-04T18:28:40.078Z,99686.39
2019-03-04T18:34:11.675Z,99688.42
2019-03-04T18:39:27.533Z,99689.47
2019-03-04T18:44:39.884Z,99702.07
2019-03-04T18:49:33.946Z,99706.42
2019-03-04T18:54:27.928Z,99710.38
2019-03-04T18:59:21.803Z,99716.13
2019-03-04T19:04:16.001Z,99719.87
2019-03-04T19:09:10.131Z,99719.69
2019-03-04T19:14:04.260Z,99716.17
2019-03-04T19:18:58.307Z,99720.28
2019-03-04T19:23:52.297Z,99725.56
2019-03-04T19:28:46.287Z,99730.14
2019-03-04T19:33:40.295Z,99740.70
2019-03-04T19:38:34.261Z,99739.61
2019-03-04T19:43:33.130Z,99737.94
2019-03-04T19:48:27.050Z,99743.19
2019-03-04T19:53:21.079Z,99744.80
2019-03-04T19:58:15.059Z,99747.25
2019-03-04T20:03:09.147Z,99741.31
2019-03-04T20:08:03.454Z,99745.41
2019-03-04T20:12:57.586Z,99743.89
2019-03-04T20:17:52.371Z,99750.26
2019-03-04T20:22:46.477Z,99740.22
2019-03-04T20:27:40.465Z,99739.33
2019-03-04T20:32:34.448Z,99735.19
2019-03-04T20:37:28.400Z,99742.06
2019-03-04T20:42:22.372Z,99751.91
2019-03-04T20:47:16.344Z,99747.98
2019-03-04T20:52:10.415Z,99747.75
2019-03-04T20:57:04.474Z,99758.73
2019-03-04T21:01:58.337Z,99775.48
2019-03-04T21:06:52.368Z,99828.94
2019-03-04T21:11:46.352Z,99806.22
2019-03-04T21:16:40.333Z,99826.05
2019-03-04T21:21:34.355Z,99848.87
2019-03-04T21:26:28.535Z,99854.83
2019-03-04T21:31:44.758Z,99859.03
2019-03-04T21:37:05.305Z,99866.10
2019-03-04T21:42:02.996Z,99868.75
2019-03-04T21:47:12.415Z,99885.64
2019-03-04T21:52:20.225Z,99870.33
2019-03-04T21:57:24.856Z,99884.01
2019-03-04T22:02:23.599Z,99882.59
2019-03-04T22:07:17.705Z,99889.92
2019-03-04T22:12:12.735Z,99907.35
2019-03-04T22:17:07.035Z,99895.50
2019-03-04T22:22:01.218Z,99895.16
2019-03-04T22:26:55.143Z,99915.80
2019-03-04T22:31:49.079Z,99914.12
2019-03-04T22:36:42.939Z,99925.39
2019-03-04T22:41:36.926Z,99920.10
2019-03-04T22:46:30.819Z,99912.43
2019-03-04T22:51:24.681Z,99923.08
2019-03-04T22:56:18.569Z,99923.42
2019-03-04T23:01:18.136Z,99935.27
2019-03-04T23:06:21.521Z,99934.08
2019-03-04T23:11:16.269Z,99940.77
2019-03-04T23:16:13.386Z,99951.56
2019-03-04T23:21:07.391Z,99980.64
2019-03-04T23:26:01.353Z,99947.77
2019-03-04T23:30:55.206Z,99953.51
2019-03-04T23:35:49.077Z,99955.67
2019-03-04T23:40:43.234Z,99957.81
2019-03-04T23:45:37.515Z,99958.06
2019-03-04T23:50:31.524Z,99944.13
2019-03-04T23:55:25.419Z,99940.08
